Parkville, Maryland
Current Conditions -  °F | °C
As of 4:30 AM on Thursday 27 Nov 2014 (Local Time) from KMTN Reporting Station
Scattered Clouds Scattered Clouds  
Wind Chill: 36°   Ceiling: Unl
Heat Index: 36°   Visibility: 10mi
Dew Point: 34°   Wind: 3mph
Humidity: 93%   Direction: 210°SSW
Pressure: 30.02"   Gusts: NA
Location:  39.38°N, 76.54°W
Report Text: KMTN 270930Z AUTO 21003KT 10SM SCT090 02/01 A3002 RMK AO2
Loading
Personal Weather Stations






























Interactive Weather Map New forecast layout! Learn more

10-Day Weather Forecast

Advertisements
Track Severe Weather on mobile